메인 페이지
METAR-TAF:

METAR-TAF

공항 :

우루무치 디워푸 국제공항

우루무치, 중국

위도: 43-54N, 경도: 087-28E, 고도: 654m

현재 날씨관측

예보는 35분 전, 16:30시(UTC)에 발표되었습니다.
6kt
온도 27°C
습도 21%
기압 1013 hPa
시정 10km 이상
1500m 미만 상공 구름 및 적란운 없음

METAR: ZWWW 311630Z 19003MPS CAVOK 27/03 Q1013 NOSIG

시각: 23:05 (17:05 UTC)

예보

예보는 8 시간 3분 전, 09:02시(UTC)에 발표되었습니다.
예보 대상 시간: 31일 12시부터 01일 12시까지 (UTC)
서북서10kt, 순간 최대 풍속 19kt
시정 10km 이상
1500m 미만 상공 구름 및 적란운 없음
전환 중
31일 13시부터 31일 14시까지 (UTC)
8kt
전환 중
01일 02시부터 01일 03시까지 (UTC)
8kt

TAF: ZWWW 310902Z 3112/0112 30005G10MPS CAVOK TX35/0109Z TN22/3123Z BECMG 3113/3114 18004MPS BECMG 0102/0103 36004MPS

4,000개 이상의 공항 관측 자료 및 예보 (METAR 및 TAF 보고).

지도상에서 검색 가능한 기상관측소가 노란 점과 빨간 점으로 표시되어 있습니다.

기상관측소 명을 보려면 표시 위로 마우스를 이동하세요.

날씨 관측과 예보를 보려면 클릭하세요.

지도 변경 : 확대하려면 엑스 표시가 있는 녹색 버튼, 축소하려면 빼기 표시가 있는 녹색 버튼, 다음 페이지의 지도를 보려면 녹색 화살표를 클릭하세요.


METAR-TAF: